createdAt,value
2023-05-01T00:01:16.303Z,6.10
2023-05-01T00:03:45.919Z,5.80
2023-05-01T00:06:16.580Z,3.80
2023-05-01T00:08:47.489Z,6.70
2023-05-01T00:11:16.862Z,6.60
2023-05-01T00:13:44.974Z,6.50
2023-05-01T00:18:45.204Z,5.20
2023-05-01T00:21:15.710Z,6.30
2023-05-01T00:23:45.081Z,6.30
2023-05-01T00:26:16.987Z,6.20
2023-05-01T00:28:48.346Z,3.60
2023-05-01T00:36:17.420Z,4.00
2023-05-01T00:38:47.288Z,6.10
2023-05-01T00:41:17.978Z,3.70
2023-05-01T00:43:46.374Z,3.70
2023-05-01T00:46:17.026Z,6.60
2023-05-01T00:48:46.778Z,5.60
2023-05-01T00:53:47.774Z,5.30
2023-05-01T00:56:18.551Z,3.90
2023-05-01T00:58:51.199Z,6.00
2023-05-01T01:01:19.630Z,4.30
2023-05-01T01:03:50.680Z,6.90
2023-05-01T01:06:35.537Z,5.40
2023-05-01T01:09:19.026Z,5.60
2023-05-01T01:12:08.654Z,6.70
2023-05-01T01:14:44.362Z,6.10
2023-05-01T01:17:21.971Z,6.40
2023-05-01T01:20:18.615Z,6.70
2023-05-01T01:22:54.307Z,4.00
2023-05-01T01:26:08.406Z,4.80
2023-05-01T01:29:18.456Z,6.70
2023-05-01T01:32:02.952Z,6.60
2023-05-01T01:34:37.193Z,4.10
2023-05-01T01:37:13.983Z,5.70
2023-05-01T01:39:49.669Z,7.10
2023-05-01T01:42:23.215Z,5.90
2023-05-01T01:44:55.325Z,6.90
2023-05-01T01:47:31.856Z,4.60
2023-05-01T01:50:05.297Z,6.10
2023-05-01T01:52:37.891Z,5.60
2023-05-01T01:55:13.291Z,6.10
2023-05-01T01:57:47.205Z,7.00
2023-05-01T02:00:16.707Z,6.00
2023-05-01T02:02:51.367Z,6.00
2023-05-01T02:05:22.443Z,6.20
2023-05-01T02:07:53.860Z,7.20
2023-05-01T02:10:24.363Z,7.10
2023-05-01T02:12:57.233Z,6.10
2023-05-01T02:15:28.883Z,6.80
2023-05-01T02:17:58.173Z,6.70
2023-05-01T02:20:29.817Z,4.70
2023-05-01T02:23:00.400Z,7.00
2023-05-01T02:25:35.750Z,6.40
2023-05-01T02:28:13.402Z,6.70
2023-05-01T02:30:42.534Z,6.40
2023-05-01T02:33:12.070Z,3.90
2023-05-01T02:35:44.049Z,4.90
2023-05-01T02:38:15.036Z,4.20
2023-05-01T02:40:50.120Z,4.50
2023-05-01T02:43:23.131Z,5.10
2023-05-01T02:45:54.880Z,3.80
2023-05-01T02:48:29.392Z,3.90
2023-05-01T02:51:01.577Z,4.60
2023-05-01T02:53:31.059Z,6.30
2023-05-01T02:56:08.068Z,4.70
2023-05-01T02:58:36.699Z,6.00
2023-05-01T03:01:05.811Z,6.30
2023-05-01T03:03:35.827Z,5.90
2023-05-01T03:06:05.646Z,4.00
2023-05-01T03:08:36.515Z,5.90
2023-05-01T03:11:07.486Z,4.70
2023-05-01T03:13:37.033Z,5.30
2023-05-01T03:16:06.981Z,4.50
2023-05-01T03:18:35.777Z,5.90
2023-05-01T03:21:05.548Z,4.10
2023-05-01T03:23:35.063Z,5.70
2023-05-01T03:26:04.643Z,4.60
2023-05-01T03:28:34.023Z,4.60
2023-05-01T03:31:02.256Z,3.10
2023-05-01T03:33:31.572Z,3.90
2023-05-01T03:36:04.023Z,4.40
2023-05-01T03:38:36.173Z,5.30
2023-05-01T03:41:11.434Z,4.50
2023-05-01T03:43:58.170Z,6.00
2023-05-01T03:46:34.660Z,3.30
2023-05-01T03:49:04.770Z,5.40
2023-05-01T03:51:37.168Z,5.80
2023-05-01T03:54:07.273Z,5.80
2023-05-01T03:56:51.407Z,5.00
2023-05-01T03:59:21.834Z,4.60
2023-05-01T04:06:57.505Z,5.10
2023-05-01T04:09:29.813Z,4.40
2023-05-01T04:12:00.972Z,5.30
2023-05-01T04:14:30.958Z,3.00
2023-05-01T04:17:00.705Z,3.90
2023-05-01T04:19:34.822Z,5.90
2023-05-01T04:22:05.618Z,4.60
2023-05-01T04:24:37.821Z,5.80
2023-05-01T04:27:08.318Z,4.10
2023-05-01T04:29:36.499Z,3.60
2023-05-01T04:32:06.466Z,4.60
2023-05-01T04:34:36.086Z,5.10
2023-05-01T04:37:07.203Z,3.80
2023-05-01T04:39:37.902Z,6.40
2023-05-01T04:42:06.261Z,4.10
2023-05-01T04:44:37.216Z,4.10
2023-05-01T04:47:06.969Z,7.00
2023-05-01T04:49:36.616Z,5.40
2023-05-01T04:52:07.396Z,7.20
2023-05-01T04:54:51.453Z,4.80
2023-05-01T04:59:52.199Z,8.10
2023-05-01T05:04:50.459Z,7.90
2023-05-01T05:07:18.820Z,6.50
2023-05-01T05:10:15.804Z,6.70
2023-05-01T05:12:50.045Z,7.00
2023-05-01T05:15:18.450Z,7.60
2023-05-01T05:17:49.105Z,9.70
2023-05-01T05:20:19.146Z,7.60
2023-05-01T05:22:49.682Z,8.30
2023-05-01T05:25:28.176Z,8.20
2023-05-01T05:27:57.517Z,9.30
2023-05-01T05:30:25.616Z,8.80
2023-05-01T05:32:53.936Z,9.90
2023-05-01T05:35:23.392Z,11.60
2023-05-01T05:37:54.612Z,11.60
2023-05-01T05:40:22.723Z,10.30
2023-05-01T05:42:58.234Z,9.90
2023-05-01T05:45:29.544Z,11.90
2023-05-01T05:47:58.349Z,12.40
2023-05-01T05:50:28.185Z,12.60
2023-05-01T05:52:57.516Z,10.60
2023-05-01T05:55:28.177Z,12.60
2023-05-01T05:58:08.058Z,10.40
2023-05-01T06:00:38.833Z,11.00
2023-05-01T06:05:37.955Z,13.00
2023-05-01T06:08:06.491Z,11.70
2023-05-01T06:10:34.483Z,12.50
2023-05-01T06:13:13.803Z,11.10
2023-05-01T06:15:46.851Z,12.50
2023-05-01T06:20:47.212Z,11.20
2023-05-01T06:23:17.698Z,11.50
2023-05-01T06:26:14.485Z,14.30
2023-05-01T06:28:43.921Z,14.80
2023-05-01T06:31:15.976Z,14.60
2023-05-01T06:33:51.232Z,13.90
2023-05-01T06:38:57.730Z,12.70
2023-05-01T06:41:28.762Z,13.20
2023-05-01T06:43:58.560Z,13.90
2023-05-01T06:46:30.538Z,14.70
2023-05-01T06:48:59.944Z,13.90
2023-05-01T06:51:31.529Z,14.10
2023-05-01T06:54:01.082Z,15.20
2023-05-01T06:59:00.552Z,13.90
2023-05-01T07:01:34.745Z,14.90
2023-05-01T07:04:05.273Z,14.00
2023-05-01T07:06:35.377Z,16.30
2023-05-01T07:09:03.914Z,15.80
2023-05-01T07:11:32.175Z,15.30
2023-05-01T07:14:02.275Z,16.30
2023-05-01T07:16:33.381Z,15.20
2023-05-01T07:19:02.821Z,17.00
2023-05-01T07:21:32.722Z,16.10
2023-05-01T07:24:01.002Z,17.50
2023-05-01T07:26:30.556Z,16.10
2023-05-01T07:28:59.885Z,17.10
2023-05-01T07:31:29.438Z,17.90
2023-05-01T07:34:01.504Z,18.00
2023-05-01T07:36:30.889Z,17.90
2023-05-01T07:39:00.990Z,19.00
2023-05-01T07:41:29.262Z,18.40
2023-05-01T07:44:00.136Z,19.40
2023-05-01T07:46:28.436Z,20.00
2023-05-01T07:48:56.954Z,20.70
2023-05-01T07:51:27.793Z,21.00
2023-05-01T07:53:58.714Z,21.20
2023-05-01T07:56:27.211Z,20.20
2023-05-01T07:58:56.557Z,20.40
2023-05-01T08:01:25.469Z,20.30
2023-05-01T08:03:56.270Z,19.00
2023-05-01T08:06:28.003Z,19.90
2023-05-01T08:08:56.328Z,19.80
2023-05-01T08:11:26.534Z,20.20
2023-05-01T08:13:54.722Z,20.40
2023-05-01T08:16:22.902Z,20.60
2023-05-01T08:18:53.562Z,21.00
2023-05-01T08:21:24.160Z,21.10
2023-05-01T08:23:57.073Z,21.00
2023-05-01T08:26:25.327Z,20.80
2023-05-01T08:28:54.715Z,20.90
2023-05-01T08:31:26.477Z,21.40
2023-05-01T08:33:54.785Z,20.80
2023-05-01T08:36:23.139Z,20.80
2023-05-01T08:38:52.744Z,20.40
2023-05-01T08:41:25.438Z,20.20
2023-05-01T08:43:57.595Z,20.00
2023-05-01T08:46:40.691Z,19.90
2023-05-01T08:49:12.488Z,20.00
2023-05-01T08:51:47.308Z,20.10
2023-05-01T08:54:17.565Z,20.40
2023-05-01T08:56:48.803Z,21.00
2023-05-01T08:59:19.342Z,21.60
2023-05-01T09:01:51.036Z,21.90
2023-05-01T09:04:19.537Z,22.70
2023-05-01T09:06:49.599Z,22.80
2023-05-01T09:09:17.834Z,23.30
2023-05-01T09:11:49.129Z,23.60
2023-05-01T09:14:18.500Z,24.20
2023-05-01T09:16:49.249Z,23.40
2023-05-01T09:19:18.754Z,23.30
2023-05-01T09:21:48.800Z,23.30
2023-05-01T09:24:17.497Z,23.80
2023-05-01T09:26:49.865Z,23.80
2023-05-01T09:29:41.048Z,24.20
2023-05-01T09:32:20.567Z,24.40
2023-05-01T09:34:52.055Z,24.50
2023-05-01T09:37:29.404Z,24.40
2023-05-01T09:40:09.700Z,24.30
2023-05-01T09:42:43.972Z,24.30
2023-05-01T09:45:15.357Z,24.30
2023-05-01T09:47:45.595Z,24.50
2023-05-01T09:50:31.334Z,24.80
2023-05-01T09:53:05.794Z,25.20
2023-05-01T09:55:35.244Z,25.40
2023-05-01T09:58:06.601Z,25.70
2023-05-01T10:00:49.260Z,25.50
2023-05-01T10:03:17.734Z,25.50
2023-05-01T10:05:46.875Z,25.80
2023-05-01T10:08:17.733Z,26.30
2023-05-01T10:10:47.158Z,26.50
2023-05-01T10:13:19.880Z,26.80
2023-05-01T10:15:50.247Z,26.90
2023-05-01T10:18:21.816Z,27.00
2023-05-01T10:20:52.701Z,26.90
2023-05-01T10:23:22.618Z,26.50
2023-05-01T10:25:54.771Z,26.50
2023-05-01T10:28:29.870Z,26.50
2023-05-01T10:30:59.664Z,26.70
2023-05-01T10:33:30.174Z,26.80
2023-05-01T10:36:01.620Z,26.40
2023-05-01T10:38:37.800Z,26.20
2023-05-01T10:41:08.524Z,26.40
2023-05-01T10:43:40.524Z,26.80
2023-05-01T10:46:29.825Z,27.10
2023-05-01T10:48:59.764Z,27.50
2023-05-01T10:51:28.631Z,27.90
2023-05-01T10:54:25.976Z,28.40
2023-05-01T10:56:56.853Z,28.40
2023-05-01T10:59:27.195Z,28.20
2023-05-01T11:01:57.920Z,28.50
2023-05-01T11:04:56.269Z,28.60
2023-05-01T11:07:27.287Z,28.40
2023-05-01T11:09:59.009Z,28.10
2023-05-01T11:12:54.314Z,28.20
2023-05-01T11:15:35.079Z,28.30
2023-05-01T11:18:06.151Z,28.40
2023-05-01T11:21:02.585Z,28.20
2023-05-01T11:23:32.963Z,28.10
2023-05-01T11:26:08.095Z,27.50
2023-05-01T11:28:40.422Z,27.30
2023-05-01T11:31:11.551Z,27.20
2023-05-01T11:33:39.858Z,27.20
2023-05-01T11:36:09.366Z,27.30
2023-05-01T11:38:38.699Z,26.90
2023-05-01T11:41:07.256Z,26.90
2023-05-01T11:43:49.691Z,26.60
2023-05-01T11:46:25.318Z,25.70
2023-05-01T11:48:56.388Z,25.40
2023-05-01T11:51:26.771Z,25.50
2023-05-01T11:54:03.013Z,25.20
2023-05-01T11:56:34.152Z,25.30
2023-05-01T11:59:14.278Z,25.30
2023-05-01T12:01:47.062Z,26.30
2023-05-01T12:04:31.313Z,26.20
2023-05-01T12:07:00.343Z,25.50
2023-05-01T12:09:32.217Z,25.90
2023-05-01T12:12:03.306Z,25.70
2023-05-01T12:14:33.155Z,25.40
2023-05-01T12:17:04.379Z,25.20
2023-05-01T12:19:35.227Z,25.40
2023-05-01T12:22:08.266Z,25.50
2023-05-01T12:24:37.626Z,25.50
2023-05-01T12:27:09.000Z,24.90
2023-05-01T12:29:44.735Z,24.40
2023-05-01T12:32:16.921Z,23.50
2023-05-01T12:34:46.998Z,24.00
2023-05-01T12:37:16.580Z,23.00
2023-05-01T12:39:45.571Z,23.30
2023-05-01T12:42:15.395Z,23.20
2023-05-01T12:44:45.784Z,23.10
2023-05-01T12:47:16.663Z,23.20
2023-05-01T12:49:47.324Z,23.60
2023-05-01T12:52:15.568Z,23.90
2023-05-01T12:54:46.248Z,25.00
2023-05-01T12:57:18.020Z,24.70
2023-05-01T12:59:49.600Z,25.50
2023-05-01T13:02:21.772Z,25.60
2023-05-01T13:04:51.373Z,26.50
2023-05-01T13:07:22.312Z,27.30
2023-05-01T13:09:58.538Z,28.00
2023-05-01T13:12:28.268Z,27.80
2023-05-01T13:14:58.424Z,27.00
2023-05-01T13:17:31.200Z,26.40
2023-05-01T13:20:03.313Z,25.90
2023-05-01T13:22:33.570Z,25.60
2023-05-01T13:25:04.817Z,25.90
2023-05-01T13:27:33.339Z,26.30
2023-05-01T13:30:02.812Z,26.70
2023-05-01T13:32:34.815Z,27.40
2023-05-01T13:35:04.680Z,28.00
2023-05-01T13:37:33.393Z,28.60
2023-05-01T13:40:03.628Z,29.00
2023-05-01T13:42:33.011Z,28.90
2023-05-01T13:45:06.297Z,28.60
2023-05-01T13:47:40.534Z,26.10
2023-05-01T13:50:11.507Z,26.60
2023-05-01T13:52:46.236Z,26.80
2023-05-01T13:55:15.890Z,27.60
2023-05-01T13:57:46.582Z,28.10
2023-05-01T14:00:18.832Z,27.70
2023-05-01T14:02:51.458Z,26.80
2023-05-01T14:05:27.287Z,26.80
2023-05-01T14:07:57.689Z,27.40
2023-05-01T14:10:29.637Z,28.20
2023-05-01T14:13:01.385Z,29.10
2023-05-01T14:15:29.871Z,29.50
2023-05-01T14:18:02.137Z,29.50
2023-05-01T14:20:30.505Z,29.50
2023-05-01T14:23:00.043Z,29.40
2023-05-01T14:25:31.470Z,28.80
2023-05-01T14:28:03.761Z,28.50
2023-05-01T14:30:37.254Z,28.40
2023-05-01T14:33:11.216Z,27.50
2023-05-01T14:35:49.718Z,26.30
2023-05-01T14:38:21.340Z,25.90
2023-05-01T14:40:51.123Z,25.60
2023-05-01T14:43:22.768Z,24.20
2023-05-01T14:45:52.745Z,24.20
2023-05-01T14:48:26.263Z,25.70
2023-05-01T14:50:55.958Z,27.10
2023-05-01T14:53:24.344Z,26.30
2023-05-01T14:55:54.114Z,26.80
2023-05-01T14:58:24.004Z,27.20
2023-05-01T15:00:52.232Z,27.80
2023-05-01T15:03:21.821Z,27.30
2023-05-01T15:05:53.249Z,26.30
2023-05-01T15:08:21.480Z,24.90
2023-05-01T15:10:49.675Z,25.20
2023-05-01T15:13:18.993Z,25.80
2023-05-01T15:15:47.145Z,26.00
2023-05-01T15:18:16.549Z,25.00
2023-05-01T15:20:44.698Z,24.90
2023-05-01T15:23:15.915Z,24.40
2023-05-01T15:25:44.429Z,23.70
2023-05-01T15:28:15.779Z,23.70
2023-05-01T15:30:48.447Z,23.10
2023-05-01T15:33:19.342Z,22.90
2023-05-01T15:35:48.704Z,22.10
2023-05-01T15:38:21.715Z,22.30
2023-05-01T15:40:52.064Z,23.00
2023-05-01T15:43:22.453Z,21.30
2023-05-01T15:45:52.812Z,22.00
2023-05-01T15:48:22.502Z,22.10
2023-05-01T15:50:52.182Z,22.00
2023-05-01T15:53:25.238Z,22.00
2023-05-01T15:55:58.466Z,23.00
2023-05-01T15:58:26.836Z,23.90
2023-05-01T16:00:55.267Z,24.40
2023-05-01T16:03:23.958Z,24.90
2023-05-01T16:05:52.389Z,24.80
2023-05-01T16:08:23.173Z,23.70
2023-05-01T16:10:53.976Z,23.30
2023-05-01T16:13:24.605Z,23.00
2023-05-01T16:15:54.162Z,23.30
2023-05-01T16:18:26.158Z,23.20
2023-05-01T16:20:55.328Z,24.40
2023-05-01T16:23:28.476Z,22.40
2023-05-01T16:25:57.669Z,23.00
2023-05-01T16:28:28.018Z,23.20
2023-05-01T16:30:56.461Z,24.10
2023-05-01T16:33:24.812Z,21.90
2023-05-01T16:38:25.472Z,20.60
2023-05-01T16:40:54.931Z,20.60
2023-05-01T16:43:24.315Z,19.90
2023-05-01T16:48:25.440Z,19.90
2023-05-01T16:50:54.807Z,20.20
2023-05-01T16:53:25.594Z,19.90
2023-05-01T16:55:54.255Z,19.90
2023-05-01T16:58:23.982Z,18.80
2023-05-01T17:00:53.389Z,19.30
2023-05-01T17:03:22.933Z,19.50
2023-05-01T17:05:52.366Z,18.50
2023-05-01T17:08:20.500Z,18.40
2023-05-01T17:10:50.016Z,18.60
2023-05-01T17:13:19.333Z,19.60
2023-05-01T17:15:48.815Z,18.80
2023-05-01T17:18:17.033Z,16.90
2023-05-01T17:20:46.783Z,18.40
2023-05-01T17:23:16.276Z,15.60
2023-05-01T17:25:44.740Z,15.30
2023-05-01T17:28:14.306Z,15.40
2023-05-01T17:30:45.608Z,15.30
2023-05-01T17:33:17.341Z,13.30
2023-05-01T17:35:46.245Z,12.50
2023-05-01T17:38:16.546Z,12.20
2023-05-01T17:40:46.093Z,11.50
2023-05-01T17:43:17.943Z,11.30
2023-05-01T17:45:46.287Z,12.40
2023-05-01T17:48:16.931Z,10.90
2023-05-01T17:50:45.061Z,12.30
2023-05-01T17:53:13.541Z,10.70
2023-05-01T17:55:42.945Z,12.90
2023-05-01T18:00:42.510Z,11.30
2023-05-01T18:03:12.068Z,12.10
2023-05-01T18:05:41.735Z,11.10
2023-05-01T18:08:09.752Z,11.20
2023-05-01T18:10:38.039Z,10.00
2023-05-01T18:13:08.658Z,12.10
2023-05-01T18:15:38.089Z,11.60
2023-05-01T18:18:08.822Z,11.20
2023-05-01T18:20:38.177Z,10.20
2023-05-01T18:23:08.961Z,10.10
2023-05-01T18:25:39.822Z,10.30
2023-05-01T18:28:10.351Z,11.10
2023-05-01T18:30:38.514Z,11.90
2023-05-01T18:33:09.319Z,10.90
2023-05-01T18:35:40.835Z,10.40
2023-05-01T18:38:10.462Z,11.50
2023-05-01T18:40:39.269Z,11.40
2023-05-01T18:43:07.474Z,12.20
2023-05-01T18:45:36.806Z,10.20
2023-05-01T18:48:08.274Z,12.80
2023-05-01T18:50:36.485Z,10.30
2023-05-01T18:53:04.694Z,13.80
2023-05-01T18:55:33.229Z,12.80
2023-05-01T18:58:02.045Z,11.50
2023-05-01T19:00:30.691Z,11.20
2023-05-01T19:02:58.767Z,11.50
2023-05-01T19:05:30.859Z,12.80
2023-05-01T19:08:01.826Z,12.50
2023-05-01T19:13:01.139Z,11.00
2023-05-01T19:17:58.930Z,11.30
2023-05-01T19:20:29.672Z,10.40
2023-05-01T19:22:59.081Z,11.90
2023-05-01T19:25:30.611Z,12.50
2023-05-01T19:27:59.959Z,12.20
2023-05-01T19:30:28.242Z,10.30
2023-05-01T19:32:58.294Z,12.00
2023-05-01T19:35:30.424Z,12.30
2023-05-01T19:38:00.097Z,10.30
2023-05-01T19:40:30.756Z,10.10
2023-05-01T19:42:58.912Z,10.10
2023-05-01T19:45:28.222Z,11.10
2023-05-01T19:47:57.645Z,9.80
2023-05-01T19:50:27.442Z,9.80
2023-05-01T19:52:57.344Z,12.30
2023-05-01T19:55:25.470Z,12.00
2023-05-01T19:57:54.783Z,10.90
2023-05-01T20:00:23.311Z,10.40
2023-05-01T20:02:52.919Z,11.70
2023-05-01T20:05:29.135Z,11.00
2023-05-01T20:08:02.126Z,10.00
2023-05-01T20:10:31.599Z,11.70
2023-05-01T20:13:01.570Z,11.60
2023-05-01T20:15:29.796Z,10.70
2023-05-01T20:17:58.427Z,10.30
2023-05-01T20:20:28.077Z,10.80
2023-05-01T20:23:12.716Z,11.00
2023-05-01T20:25:42.772Z,10.60
2023-05-01T20:28:15.006Z,10.10
2023-05-01T20:30:46.476Z,11.10
2023-05-01T20:33:17.035Z,12.20
2023-05-01T20:35:47.600Z,11.40
2023-05-01T20:38:18.588Z,10.60
2023-05-01T20:40:49.105Z,9.60
2023-05-01T20:43:17.164Z,11.10
2023-05-01T20:45:47.985Z,10.10
2023-05-01T20:48:16.155Z,10.20
2023-05-01T20:50:46.660Z,10.70
2023-05-01T20:53:16.002Z,10.30
2023-05-01T20:55:46.715Z,11.30
2023-05-01T20:58:15.988Z,10.50
2023-05-01T21:00:46.515Z,10.50
2023-05-01T21:03:15.843Z,10.70
2023-05-01T21:05:46.440Z,11.60
2023-05-01T21:08:15.155Z,11.50
2023-05-01T21:10:45.958Z,9.40
2023-05-01T21:13:17.651Z,11.40
2023-05-01T21:15:48.232Z,9.30
2023-05-01T21:18:20.217Z,9.60
2023-05-01T21:20:50.720Z,11.30
2023-05-01T21:23:19.140Z,10.80
2023-05-01T21:25:48.605Z,11.60
2023-05-01T21:28:16.678Z,11.30
2023-05-01T21:30:46.039Z,10.80
2023-05-01T21:33:17.169Z,11.50
2023-05-01T21:35:49.002Z,10.70
2023-05-01T21:38:17.601Z,11.00
2023-05-01T21:40:47.427Z,10.60
2023-05-01T21:43:19.753Z,10.50
2023-05-01T21:45:50.907Z,10.40
2023-05-01T21:48:20.950Z,10.40
2023-05-01T21:50:52.491Z,11.90
2023-05-01T21:53:21.788Z,10.70
2023-05-01T21:55:50.007Z,10.70
2023-05-01T21:58:20.796Z,10.50
2023-05-01T22:00:52.330Z,10.50
2023-05-01T22:03:24.557Z,9.60
2023-05-01T22:05:55.461Z,9.80
2023-05-01T22:08:23.597Z,10.50
2023-05-01T22:10:52.033Z,11.20
2023-05-01T22:13:22.654Z,10.50
2023-05-01T22:15:53.195Z,9.90
2023-05-01T22:18:22.825Z,10.50
2023-05-01T22:20:52.171Z,10.60
2023-05-01T22:23:21.503Z,10.70
2023-05-01T22:25:52.310Z,10.70
2023-05-01T22:28:24.686Z,10.30
2023-05-01T22:30:54.579Z,10.40
2023-05-01T22:33:23.947Z,10.20
2023-05-01T22:35:52.054Z,10.40
2023-05-01T22:38:21.340Z,10.50
2023-05-01T22:40:50.697Z,9.80
2023-05-01T22:45:50.280Z,11.90
2023-05-01T22:48:18.549Z,10.30
2023-05-01T22:50:47.865Z,11.40
2023-05-01T22:53:16.117Z,11.30
2023-05-01T22:55:45.625Z,11.40
2023-05-01T22:58:13.690Z,11.80
2023-05-01T23:00:43.090Z,11.50
2023-05-01T23:03:15.397Z,10.90
2023-05-01T23:05:46.267Z,12.00
2023-05-01T23:08:15.699Z,9.90
2023-05-01T23:10:46.322Z,10.40
2023-05-01T23:13:22.588Z,11.80
2023-05-01T23:15:53.531Z,10.70
2023-05-01T23:18:31.624Z,9.60
2023-05-01T23:21:02.303Z,11.70
2023-05-01T23:23:32.513Z,11.20
2023-05-01T23:26:01.985Z,10.00
2023-05-01T23:28:30.640Z,10.70
2023-05-01T23:31:03.942Z,10.90
2023-05-01T23:33:36.957Z,9.30
2023-05-01T23:36:11.493Z,9.60
2023-05-01T23:38:41.340Z,11.70
2023-05-01T23:41:12.298Z,10.60
2023-05-01T23:43:42.025Z,10.40
2023-05-01T23:46:11.446Z,9.10
2023-05-01T23:48:42.626Z,10.70
2023-05-01T23:51:13.393Z,10.30
2023-05-01T23:53:43.104Z,10.90
2023-05-01T23:56:13.679Z,11.70
2023-05-01T23:58:41.788Z,11.40
